createdAt,value
2019-03-31T00:00:26.369Z,7.51
2019-03-31T00:02:57.449Z,7.54
2019-03-31T00:05:28.545Z,7.56
2019-03-31T00:07:59.014Z,7.60
2019-03-31T00:10:30.044Z,7.56
2019-03-31T00:13:01.366Z,7.50
2019-03-31T00:15:32.172Z,7.48
2019-03-31T00:18:02.949Z,7.46
2019-03-31T00:20:33.574Z,7.45
2019-03-31T00:23:04.530Z,7.43
2019-03-31T00:25:35.372Z,7.38
2019-03-31T00:28:05.984Z,7.35
2019-03-31T00:30:36.700Z,7.32
2019-03-31T00:33:07.130Z,7.27
2019-03-31T00:35:37.559Z,7.22
2019-03-31T00:38:08.300Z,7.21
2019-03-31T00:40:39.105Z,7.17
2019-03-31T00:43:09.515Z,7.19
2019-03-31T00:45:40.363Z,7.17
2019-03-31T00:48:11.028Z,7.11
2019-03-31T00:50:41.677Z,7.08
2019-03-31T00:53:12.443Z,7.03
2019-03-31T00:55:43.020Z,7.03
2019-03-31T00:58:13.988Z,7.01
2019-03-31T01:01:05.063Z,7.00
2019-03-31T01:03:35.722Z,6.99
2019-03-31T01:06:06.510Z,6.95
2019-03-31T01:08:37.434Z,6.94
2019-03-31T01:11:13.623Z,6.93
2019-03-31T01:13:44.866Z,6.92
2019-03-31T01:16:16.003Z,6.88
2019-03-31T01:18:46.739Z,6.87
2019-03-31T01:21:17.428Z,6.84
2019-03-31T01:23:48.098Z,6.81
2019-03-31T01:26:21.143Z,6.78
2019-03-31T01:28:51.933Z,6.76
2019-03-31T01:31:22.846Z,6.75
2019-03-31T01:33:53.632Z,6.73
2019-03-31T01:36:24.611Z,6.75
2019-03-31T01:38:55.261Z,6.74
2019-03-31T01:41:25.660Z,6.75
2019-03-31T01:43:56.334Z,6.79
2019-03-31T01:46:27.909Z,6.82
2019-03-31T01:48:58.614Z,6.86
2019-03-31T01:51:29.095Z,6.90
2019-03-31T01:54:00.005Z,6.92
2019-03-31T01:56:30.607Z,6.90
2019-03-31T01:59:01.393Z,6.89
2019-03-31T02:01:32.140Z,6.87
2019-03-31T02:04:05.927Z,6.84
2019-03-31T02:06:36.307Z,6.81
2019-03-31T02:09:07.683Z,6.76
2019-03-31T02:11:38.283Z,6.71
2019-03-31T02:14:09.070Z,6.66
2019-03-31T02:16:39.437Z,6.61
2019-03-31T02:19:10.274Z,6.55
2019-03-31T02:21:41.047Z,6.53
2019-03-31T02:24:11.883Z,6.52
2019-03-31T02:26:42.472Z,6.52
2019-03-31T02:29:13.078Z,6.53
2019-03-31T02:31:44.221Z,6.54
2019-03-31T02:34:15.072Z,6.52
2019-03-31T02:36:45.812Z,6.52
2019-03-31T02:39:16.592Z,6.50
2019-03-31T02:41:47.443Z,6.51
2019-03-31T02:44:18.016Z,6.47
2019-03-31T02:46:48.562Z,6.42
2019-03-31T02:49:19.038Z,6.38
2019-03-31T02:51:49.957Z,6.36
2019-03-31T02:54:20.531Z,6.32
2019-03-31T02:56:51.697Z,6.30
2019-03-31T02:59:22.825Z,6.27
2019-03-31T03:01:54.914Z,6.24
2019-03-31T03:04:26.462Z,6.20
2019-03-31T03:06:58.557Z,6.21
2019-03-31T03:09:31.102Z,6.18
2019-03-31T03:12:03.347Z,6.14
2019-03-31T03:14:36.036Z,6.10
2019-03-31T03:17:06.571Z,6.06
2019-03-31T03:19:37.383Z,6.03
2019-03-31T03:22:07.843Z,6.02
2019-03-31T03:24:38.630Z,6.02
2019-03-31T03:27:09.123Z,6.05
2019-03-31T03:29:39.838Z,6.06
2019-03-31T03:32:10.470Z,6.07
2019-03-31T03:34:42.628Z,6.10
2019-03-31T03:37:13.279Z,6.10
2019-03-31T03:39:43.547Z,6.11
2019-03-31T03:42:14.176Z,6.10
2019-03-31T03:44:44.987Z,6.08
2019-03-31T03:47:15.790Z,6.06
2019-03-31T03:49:46.468Z,6.05
2019-03-31T03:52:17.044Z,6.06
2019-03-31T03:54:57.998Z,6.06
2019-03-31T03:57:28.576Z,6.09
2019-03-31T03:59:59.268Z,6.12
2019-03-31T04:02:30.450Z,6.14
2019-03-31T04:05:01.897Z,6.18
2019-03-31T04:07:32.566Z,6.21
2019-03-31T04:10:04.831Z,6.26
2019-03-31T04:12:35.513Z,6.29
2019-03-31T04:15:06.432Z,6.34
2019-03-31T04:17:36.937Z,6.37
2019-03-31T04:20:07.510Z,6.41
2019-03-31T04:22:38.023Z,6.45
2019-03-31T04:25:08.524Z,6.48
2019-03-31T04:27:39.707Z,6.52
2019-03-31T04:30:10.363Z,6.55
2019-03-31T04:32:41.194Z,6.60
2019-03-31T04:35:12.285Z,6.64
2019-03-31T04:37:43.036Z,6.69
2019-03-31T04:40:13.771Z,6.72
2019-03-31T04:42:44.740Z,6.76
2019-03-31T04:45:15.399Z,6.79
2019-03-31T04:47:46.522Z,6.82
2019-03-31T04:50:16.966Z,6.86
2019-03-31T04:52:47.962Z,6.88
2019-03-31T04:55:18.754Z,6.91
2019-03-31T04:57:49.625Z,6.96
2019-03-31T05:00:21.047Z,7.00
2019-03-31T05:02:51.678Z,7.02
2019-03-31T05:05:22.213Z,7.06
2019-03-31T05:07:53.068Z,7.10
2019-03-31T05:10:23.361Z,7.16
2019-03-31T05:12:54.206Z,7.22
2019-03-31T05:15:25.042Z,7.26
2019-03-31T05:17:55.519Z,7.34
2019-03-31T05:20:26.170Z,7.39
2019-03-31T05:22:56.816Z,7.46
2019-03-31T05:25:28.113Z,7.55
2019-03-31T05:27:58.919Z,7.63
2019-03-31T05:30:30.676Z,7.69
2019-03-31T05:33:01.452Z,7.75
2019-03-31T05:35:32.013Z,7.80
2019-03-31T05:38:02.894Z,7.84
2019-03-31T05:40:33.936Z,7.85
2019-03-31T05:43:04.687Z,7.88
2019-03-31T05:45:35.409Z,7.89
2019-03-31T05:48:05.906Z,7.92
2019-03-31T05:50:36.799Z,7.99
2019-03-31T05:53:07.243Z,8.05
2019-03-31T05:55:37.927Z,8.14
2019-03-31T05:58:08.620Z,8.21
2019-03-31T06:00:43.043Z,8.30
2019-03-31T06:03:14.006Z,8.35
2019-03-31T06:05:44.718Z,8.40
2019-03-31T06:08:15.526Z,8.46
2019-03-31T06:10:46.072Z,8.47
2019-03-31T06:13:17.080Z,8.49
2019-03-31T06:15:48.283Z,8.55
2019-03-31T06:18:18.845Z,8.62
2019-03-31T06:20:49.625Z,8.71
2019-03-31T06:23:20.224Z,8.81
2019-03-31T06:25:51.043Z,8.90
2019-03-31T06:28:22.023Z,8.97
2019-03-31T06:30:52.770Z,9.03
2019-03-31T06:33:23.777Z,9.08
2019-03-31T06:35:54.879Z,9.14
2019-03-31T06:38:25.715Z,9.20
2019-03-31T06:40:59.651Z,9.24
2019-03-31T06:43:30.561Z,9.28
2019-03-31T06:46:01.512Z,9.33
2019-03-31T06:48:32.290Z,9.38
2019-03-31T06:51:02.742Z,9.47
2019-03-31T06:53:33.738Z,9.55
2019-03-31T06:56:04.787Z,9.64
2019-03-31T06:58:35.933Z,9.70
2019-03-31T07:01:06.638Z,9.74
2019-03-31T07:03:37.510Z,9.81
2019-03-31T07:06:08.464Z,9.86
2019-03-31T07:08:38.939Z,9.90
2019-03-31T07:11:09.832Z,9.99
2019-03-31T07:13:41.215Z,10.16
2019-03-31T07:16:12.088Z,10.37
2019-03-31T07:18:42.788Z,10.55
2019-03-31T07:21:13.491Z,10.67
2019-03-31T07:23:44.002Z,10.75
2019-03-31T07:26:14.610Z,10.83
2019-03-31T07:28:45.434Z,10.92
2019-03-31T07:31:16.175Z,11.00
2019-03-31T07:33:46.780Z,11.04
2019-03-31T07:36:17.546Z,11.06
2019-03-31T07:38:48.537Z,11.03
2019-03-31T07:41:19.169Z,11.00
2019-03-31T07:43:49.995Z,10.99
2019-03-31T07:46:20.734Z,11.03
2019-03-31T07:48:51.452Z,11.06
2019-03-31T07:51:22.456Z,11.07
2019-03-31T07:53:53.357Z,11.08
2019-03-31T07:56:24.161Z,11.15
2019-03-31T07:58:55.148Z,11.21
2019-03-31T08:01:25.669Z,11.17
2019-03-31T08:03:56.378Z,11.19
2019-03-31T08:06:27.028Z,11.23
2019-03-31T08:08:58.028Z,11.26
2019-03-31T08:11:28.611Z,11.28
2019-03-31T08:13:59.413Z,11.32
2019-03-31T08:16:30.230Z,11.39
2019-03-31T08:19:00.904Z,11.46
2019-03-31T08:21:31.995Z,11.51
2019-03-31T08:26:59.302Z,11.64
2019-03-31T08:30:00.796Z,11.68
2019-03-31T08:32:29.955Z,11.74
2019-03-31T08:35:10.556Z,11.81
2019-03-31T08:37:47.862Z,11.87
2019-03-31T08:41:41.794Z,11.94
2019-03-31T08:44:27.563Z,12.05
2019-03-31T08:47:00.062Z,12.22
2019-03-31T08:49:38.278Z,12.32
2019-03-31T08:52:12.142Z,12.40
2019-03-31T08:54:46.005Z,12.50
2019-03-31T08:57:42.312Z,12.60
2019-03-31T09:00:36.782Z,12.67
2019-03-31T09:03:07.274Z,12.75
2019-03-31T09:06:08.600Z,12.85
2019-03-31T09:08:56.843Z,12.94
2019-03-31T09:13:13.970Z,13.00
2019-03-31T09:16:33.889Z,13.03
2019-03-31T09:24:08.682Z,13.06
2019-03-31T09:26:46.360Z,13.10
2019-03-31T09:29:30.706Z,13.18
2019-03-31T09:32:57.205Z,13.21
2019-03-31T09:38:30.580Z,13.36
2019-03-31T09:41:09.462Z,13.39
2019-03-31T09:43:41.049Z,13.46
2019-03-31T09:46:50.834Z,13.51
2019-03-31T09:50:26.053Z,13.55
2019-03-31T09:53:12.639Z,13.59
2019-03-31T09:56:30.216Z,13.60
2019-03-31T09:59:09.244Z,13.62
2019-03-31T10:01:40.848Z,13.65
2019-03-31T10:04:18.947Z,13.68
2019-03-31T10:07:13.738Z,13.76
2019-03-31T10:09:53.290Z,13.83
2019-03-31T10:12:34.261Z,13.83
2019-03-31T10:15:09.087Z,13.87
2019-03-31T10:17:39.978Z,13.93
2019-03-31T10:20:10.894Z,13.93
2019-03-31T10:22:42.213Z,13.98
2019-03-31T10:25:13.426Z,13.99
2019-03-31T10:27:44.465Z,13.99
2019-03-31T10:30:19.508Z,13.99
2019-03-31T10:32:51.221Z,14.04
2019-03-31T10:35:22.577Z,14.04
2019-03-31T10:37:53.209Z,14.02
2019-03-31T10:40:24.187Z,14.06
2019-03-31T10:42:54.845Z,14.13
2019-03-31T10:45:25.846Z,14.17
2019-03-31T10:47:56.662Z,14.19
2019-03-31T10:50:28.112Z,14.22
2019-03-31T10:52:58.745Z,14.22
2019-03-31T10:55:29.312Z,14.24
2019-03-31T10:58:00.864Z,14.29
2019-03-31T11:00:36.961Z,14.27
2019-03-31T11:03:08.644Z,14.29
2019-03-31T11:05:39.543Z,14.33
2019-03-31T11:08:10.373Z,14.40
2019-03-31T11:10:41.894Z,14.44
2019-03-31T11:13:13.110Z,14.43
2019-03-31T11:15:44.516Z,14.46
2019-03-31T11:18:15.252Z,14.48
2019-03-31T11:20:46.370Z,14.52
2019-03-31T11:23:22.123Z,14.58
2019-03-31T11:25:52.816Z,14.61
2019-03-31T11:28:23.967Z,14.68
2019-03-31T11:30:54.714Z,14.80
2019-03-31T11:33:25.801Z,14.92
2019-03-31T11:35:56.787Z,14.98
2019-03-31T11:38:27.478Z,15.03
2019-03-31T11:40:58.590Z,15.14
2019-03-31T11:43:29.688Z,15.33
2019-03-31T11:46:00.528Z,15.56
2019-03-31T11:48:31.545Z,15.67
2019-03-31T11:51:02.440Z,15.72
2019-03-31T11:53:33.360Z,15.84
2019-03-31T11:56:04.851Z,15.89
2019-03-31T11:58:35.756Z,16.07
2019-03-31T12:01:07.578Z,16.26
2019-03-31T12:03:38.311Z,16.42
2019-03-31T12:06:11.232Z,16.48
2019-03-31T12:08:42.996Z,16.60
2019-03-31T12:11:14.412Z,16.58
2019-03-31T12:13:45.950Z,16.69
2019-03-31T12:16:17.548Z,16.76
2019-03-31T12:18:48.674Z,16.87
2019-03-31T12:21:19.617Z,16.89
2019-03-31T12:23:50.287Z,16.90
2019-03-31T12:26:21.183Z,16.99
2019-03-31T12:28:52.548Z,17.15
2019-03-31T12:31:23.003Z,17.49
2019-03-31T12:33:53.911Z,17.54
2019-03-31T12:36:25.346Z,17.40
2019-03-31T12:38:56.033Z,17.32
2019-03-31T12:41:27.162Z,17.37
2019-03-31T12:43:57.933Z,17.63
2019-03-31T12:46:29.013Z,17.65
2019-03-31T12:49:00.719Z,19.09
2019-03-31T12:51:31.773Z,20.72
2019-03-31T12:54:02.762Z,20.70
2019-03-31T12:56:33.920Z,19.90
2019-03-31T12:59:05.414Z,19.31
2019-03-31T13:01:36.807Z,19.09
2019-03-31T13:04:07.844Z,18.84
2019-03-31T13:06:38.566Z,18.41
2019-03-31T13:09:09.518Z,18.16
2019-03-31T13:11:40.609Z,18.56
2019-03-31T13:14:11.595Z,19.35
2019-03-31T13:16:42.364Z,18.91
2019-03-31T13:19:13.152Z,18.40
2019-03-31T13:21:44.377Z,17.84
2019-03-31T13:24:15.806Z,17.52
2019-03-31T13:26:50.054Z,17.23
2019-03-31T13:29:21.884Z,17.02
2019-03-31T13:31:54.878Z,16.89
2019-03-31T13:34:25.630Z,16.76
2019-03-31T13:36:56.468Z,16.63
2019-03-31T13:39:30.224Z,16.52
2019-03-31T13:42:01.012Z,16.41
2019-03-31T13:44:31.858Z,16.39
2019-03-31T13:47:02.894Z,16.37
2019-03-31T13:49:34.954Z,16.31
2019-03-31T13:52:05.698Z,16.30
2019-03-31T13:54:36.456Z,16.34
2019-03-31T13:57:08.629Z,16.53
2019-03-31T13:59:40.357Z,16.57
2019-03-31T14:02:11.335Z,17.16
2019-03-31T14:04:51.428Z,18.13
2019-03-31T14:07:16.454Z,19.05
2019-03-31T14:09:47.330Z,20.18
2019-03-31T14:12:18.744Z,20.90
2019-03-31T14:14:50.456Z,20.85
2019-03-31T14:17:24.360Z,20.63
2019-03-31T14:19:59.768Z,19.74
2019-03-31T14:22:34.146Z,19.50
2019-03-31T14:25:05.420Z,18.94
2019-03-31T14:27:36.618Z,18.25
2019-03-31T14:30:08.323Z,17.59
2019-03-31T14:32:39.754Z,17.12
2019-03-31T14:35:11.019Z,16.96
2019-03-31T14:37:41.827Z,16.87
2019-03-31T14:40:12.868Z,16.78
2019-03-31T14:42:43.683Z,16.76
2019-03-31T14:45:29.792Z,16.75
2019-03-31T14:48:01.711Z,16.62
2019-03-31T14:50:34.709Z,16.48
2019-03-31T14:53:06.392Z,16.39
2019-03-31T14:55:37.774Z,16.38
2019-03-31T14:58:09.269Z,16.37
2019-03-31T15:00:40.627Z,16.35
2019-03-31T15:03:19.384Z,16.29
2019-03-31T15:05:50.338Z,16.17
2019-03-31T15:08:24.244Z,16.01
2019-03-31T15:10:57.422Z,15.89
2019-03-31T15:13:28.687Z,15.82
2019-03-31T15:15:59.491Z,15.78
2019-03-31T15:18:31.222Z,15.72
2019-03-31T15:21:01.705Z,15.65
2019-03-31T15:23:32.789Z,15.53
2019-03-31T15:26:04.100Z,15.40
2019-03-31T15:28:38.149Z,15.28
2019-03-31T15:31:08.822Z,15.22
2019-03-31T15:33:40.162Z,15.13
2019-03-31T15:36:11.666Z,15.07
2019-03-31T15:38:43.356Z,15.03
2019-03-31T15:41:21.385Z,14.97
2019-03-31T15:43:48.408Z,14.92
2019-03-31T15:46:19.500Z,14.84
2019-03-31T15:48:50.772Z,14.76
2019-03-31T15:51:22.242Z,14.71
2019-03-31T15:53:52.954Z,14.68
2019-03-31T15:56:23.899Z,14.68
2019-03-31T15:58:55.359Z,14.67
2019-03-31T16:01:26.157Z,14.63
2019-03-31T16:03:57.042Z,14.62
2019-03-31T16:06:28.464Z,14.61
2019-03-31T16:08:58.902Z,14.62
2019-03-31T16:11:29.014Z,14.60
2019-03-31T16:13:59.011Z,14.61
2019-03-31T16:16:30.828Z,14.58
2019-03-31T16:19:01.357Z,14.52
2019-03-31T16:21:31.479Z,14.45
2019-03-31T16:24:02.051Z,14.38
2019-03-31T16:26:32.804Z,14.32
2019-03-31T16:29:02.769Z,14.31
2019-03-31T16:31:34.154Z,14.29
2019-03-31T16:34:04.412Z,14.30
2019-03-31T16:36:34.812Z,14.30
2019-03-31T16:39:06.366Z,14.31
2019-03-31T16:41:36.715Z,14.30
2019-03-31T16:44:07.038Z,14.27
2019-03-31T16:46:39.805Z,14.25
2019-03-31T16:49:09.418Z,14.23
2019-03-31T16:51:39.688Z,14.19
2019-03-31T16:54:09.621Z,14.17
2019-03-31T16:56:41.391Z,14.17
2019-03-31T16:59:11.307Z,14.13
2019-03-31T17:01:41.378Z,14.12
2019-03-31T17:04:12.601Z,14.13
2019-03-31T17:06:43.091Z,14.12
2019-03-31T17:09:13.586Z,14.11
2019-03-31T17:11:43.714Z,14.08
2019-03-31T17:14:13.855Z,14.06
2019-03-31T17:16:44.084Z,13.99
2019-03-31T17:19:14.810Z,13.89
2019-03-31T17:21:45.249Z,13.81
2019-03-31T17:24:15.880Z,13.82
2019-03-31T17:26:46.370Z,13.82
2019-03-31T17:29:16.882Z,13.80
2019-03-31T17:31:47.160Z,13.77
2019-03-31T17:34:17.287Z,13.75
2019-03-31T17:36:48.304Z,13.74
2019-03-31T17:39:18.610Z,13.72
2019-03-31T17:41:48.780Z,13.68
2019-03-31T17:44:21.141Z,13.68
2019-03-31T17:46:52.013Z,13.71
2019-03-31T17:49:22.256Z,13.70
2019-03-31T17:51:52.131Z,13.71
2019-03-31T17:54:22.413Z,13.70
2019-03-31T17:56:52.982Z,13.67
2019-03-31T17:59:23.136Z,13.65
2019-03-31T18:01:53.235Z,13.60
2019-03-31T18:04:23.417Z,13.56
2019-03-31T18:06:53.811Z,13.52
2019-03-31T18:09:24.278Z,13.49
2019-03-31T18:11:54.831Z,13.43
2019-03-31T18:14:25.017Z,13.44
2019-03-31T18:16:55.335Z,13.43
2019-03-31T18:19:26.354Z,13.35
2019-03-31T18:21:57.216Z,13.33
2019-03-31T18:24:27.568Z,13.32
2019-03-31T18:26:58.444Z,13.33
2019-03-31T18:29:28.568Z,13.34
2019-03-31T18:31:58.858Z,13.36
2019-03-31T18:34:29.968Z,13.36
2019-03-31T18:37:00.749Z,13.38
2019-03-31T18:39:31.790Z,13.42
2019-03-31T18:42:02.338Z,13.47
2019-03-31T18:44:33.353Z,13.52
2019-03-31T18:47:03.703Z,13.45
2019-03-31T18:49:34.235Z,12.80
2019-03-31T18:52:04.526Z,12.20
2019-03-31T18:54:50.045Z,11.62
2019-03-31T18:57:58.627Z,11.25
2019-03-31T19:00:38.877Z,10.96
2019-03-31T19:03:17.113Z,10.76
2019-03-31T19:06:05.950Z,10.58
2019-03-31T19:08:55.406Z,10.59
2019-03-31T19:11:31.573Z,10.58
2019-03-31T19:14:31.198Z,10.55
2019-03-31T19:17:21.028Z,10.53
2019-03-31T19:20:14.299Z,10.50
2019-03-31T19:23:03.908Z,10.47
2019-03-31T19:26:09.384Z,10.48
2019-03-31T19:28:46.698Z,10.51
2019-03-31T19:31:39.710Z,10.49
2019-03-31T19:34:32.465Z,10.43
2019-03-31T19:37:08.893Z,10.33
2019-03-31T19:39:51.851Z,10.30
2019-03-31T19:42:37.988Z,10.28
2019-03-31T19:45:30.642Z,10.29
2019-03-31T19:48:29.513Z,10.30
2019-03-31T19:51:26.151Z,10.28
2019-03-31T19:54:04.334Z,10.29
2019-03-31T19:56:59.605Z,10.28
2019-03-31T19:59:53.972Z,10.25
2019-03-31T20:02:49.756Z,10.24
2019-03-31T20:05:38.132Z,10.21
2019-03-31T20:08:36.846Z,10.20
2019-03-31T20:11:29.394Z,10.24
2019-03-31T20:14:28.348Z,10.23
2019-03-31T20:17:04.908Z,10.17
2019-03-31T20:19:53.932Z,10.21
2019-03-31T20:22:58.562Z,10.23
2019-03-31T20:25:46.761Z,10.24
2019-03-31T20:28:23.333Z,10.28
2019-03-31T20:31:15.562Z,10.29
2019-03-31T20:34:03.501Z,10.27
2019-03-31T20:36:56.101Z,10.26
2019-03-31T20:39:56.986Z,10.22
2019-03-31T20:42:34.919Z,10.13
2019-03-31T20:45:05.556Z,10.13
2019-03-31T20:47:35.588Z,10.17
2019-03-31T20:50:06.461Z,10.18
2019-03-31T20:52:37.128Z,10.15
2019-03-31T20:55:16.294Z,10.17
2019-03-31T20:57:39.092Z,10.12
2019-03-31T21:00:09.767Z,10.10
2019-03-31T21:02:40.037Z,10.06
2019-03-31T21:05:10.337Z,10.02
2019-03-31T21:07:40.604Z,10.02
2019-03-31T21:10:11.213Z,10.01
2019-03-31T21:12:41.424Z,9.99
2019-03-31T21:15:11.901Z,9.99
2019-03-31T21:17:41.919Z,9.96
2019-03-31T21:20:12.280Z,9.90
2019-03-31T21:24:14.905Z,9.80
2019-03-31T21:26:45.165Z,9.66
2019-03-31T21:29:15.199Z,9.55
2019-03-31T21:31:45.529Z,9.40
2019-03-31T21:34:15.676Z,9.28
2019-03-31T21:36:45.668Z,9.18
2019-03-31T21:39:15.767Z,9.14
2019-03-31T21:41:45.845Z,9.14
2019-03-31T21:44:15.938Z,9.10
2019-03-31T21:46:46.124Z,9.08
2019-03-31T21:49:16.343Z,9.02
2019-03-31T21:51:46.416Z,8.98
2019-03-31T21:54:16.649Z,8.91
2019-03-31T21:56:46.830Z,8.84
2019-03-31T21:59:16.796Z,8.84
2019-03-31T22:01:46.893Z,8.90
2019-03-31T22:04:17.128Z,8.92
2019-03-31T22:06:47.488Z,8.89
2019-03-31T22:09:17.470Z,8.81
2019-03-31T22:11:47.490Z,8.71
2019-03-31T22:14:17.641Z,8.60
2019-03-31T22:16:47.933Z,8.50
2019-03-31T22:19:18.146Z,8.38
2019-03-31T22:21:47.988Z,8.29
2019-03-31T22:24:18.062Z,8.20
2019-03-31T22:26:48.347Z,8.09
2019-03-31T22:29:19.020Z,8.01
2019-03-31T22:31:49.017Z,8.02
2019-03-31T22:34:19.210Z,8.00
2019-03-31T22:36:49.331Z,7.92
2019-03-31T22:39:19.633Z,7.84
2019-03-31T22:41:49.581Z,7.81
2019-03-31T22:44:19.364Z,7.74
2019-03-31T22:46:54.453Z,7.68
2019-03-31T22:49:23.152Z,7.62
2019-03-31T22:51:56.294Z,7.56
2019-03-31T22:54:25.437Z,7.51
2019-03-31T22:56:55.408Z,7.46
2019-03-31T22:59:25.476Z,7.43
2019-03-31T23:01:55.747Z,7.41
2019-03-31T23:04:25.591Z,7.35
2019-03-31T23:06:55.715Z,7.35
2019-03-31T23:16:35.714Z,7.47
2019-03-31T23:19:06.693Z,7.53
2019-03-31T23:21:36.737Z,7.62
2019-03-31T23:24:06.664Z,7.69
2019-03-31T23:26:37.723Z,7.70
2019-03-31T23:29:07.568Z,7.64
2019-03-31T23:31:38.304Z,7.53
2019-03-31T23:34:08.210Z,7.46
2019-03-31T23:36:38.417Z,7.46
2019-03-31T23:39:08.562Z,7.50
2019-03-31T23:41:38.777Z,7.58
2019-03-31T23:44:08.802Z,7.63
2019-03-31T23:46:38.863Z,7.70
2019-03-31T23:49:08.992Z,7.73
2019-03-31T23:51:38.948Z,7.76
2019-03-31T23:54:08.866Z,7.80
2019-03-31T23:56:39.066Z,7.82
2019-03-31T23:59:09.446Z,7.86
